sensor_id;sensor_type;location;lat;lon;timestamp;temperature;humidity
34434;DHT22;34290;48.562;13.384;2023-05-07T00:01:08;9.00;99.90
34434;DHT22;34290;48.562;13.384;2023-05-07T00:03:38;9.00;99.90
34434;DHT22;34290;48.562;13.384;2023-05-07T00:06:05;8.90;99.90
34434;DHT22;34290;48.562;13.384;2023-05-07T00:08:32;8.80;99.90
34434;DHT22;34290;48.562;13.384;2023-05-07T00:13:26;8.80;99.90
34434;DHT22;34290;48.562;13.384;2023-05-07T00:15:55;8.70;99.90
34434;DHT22;34290;48.562;13.384;2023-05-07T00:18:22;8.80;99.90
34434;DHT22;34290;48.562;13.384;2023-05-07T00:20:51;8.80;99.90
34434;DHT22;34290;48.562;13.384;2023-05-07T00:23:17;8.80;99.90
34434;DHT22;34290;48.562;13.384;2023-05-07T00:25:44;8.70;99.90
34434;DHT22;34290;48.562;13.384;2023-05-07T00:28:11;8.70;99.90
34434;DHT22;34290;48.562;13.384;2023-05-07T00:30:38;8.60;99.90
34434;DHT22;34290;48.562;13.384;2023-05-07T00:33:05;8.70;99.90
34434;DHT22;34290;48.562;13.384;2023-05-07T00:38:01;8.60;99.90
34434;DHT22;34290;48.562;13.384;2023-05-07T00:40:28;8.60;99.90
34434;DHT22;34290;48.562;13.384;2023-05-07T00:42:55;8.60;99.90
34434;DHT22;34290;48.562;13.384;2023-05-07T00:45:27;8.50;99.90
34434;DHT22;34290;48.562;13.384;2023-05-07T00:47:54;8.50;99.90
34434;DHT22;34290;48.562;13.384;2023-05-07T00:50:22;8.50;99.90
34434;DHT22;34290;48.562;13.384;2023-05-07T00:55:18;8.40;99.90
34434;DHT22;34290;48.562;13.384;2023-05-07T00:57:45;8.50;99.90
34434;DHT22;34290;48.562;13.384;2023-05-07T01:00:13;8.50;99.90
34434;DHT22;34290;48.562;13.384;2023-05-07T01:02:40;8.50;99.90
34434;DHT22;34290;48.562;13.384;2023-05-07T01:05:09;8.40;99.90
34434;DHT22;34290;48.562;13.384;2023-05-07T01:07:38;8.30;99.90
34434;DHT22;34290;48.562;13.384;2023-05-07T01:10:07;8.30;99.90
34434;DHT22;34290;48.562;13.384;2023-05-07T01:12:37;8.40;99.90
34434;DHT22;34290;48.562;13.384;2023-05-07T01:15:06;8.50;99.90
34434;DHT22;34290;48.562;13.384;2023-05-07T01:17:34;8.70;99.90
34434;DHT22;34290;48.562;13.384;2023-05-07T01:22:32;8.40;99.90
34434;DHT22;34290;48.562;13.384;2023-05-07T01:25:00;8.40;99.90
34434;DHT22;34290;48.562;13.384;2023-05-07T01:29:55;8.40;99.90
34434;DHT22;34290;48.562;13.384;2023-05-07T01:32:27;8.40;99.90
34434;DHT22;34290;48.562;13.384;2023-05-07T01:34:56;8.30;99.90
34434;DHT22;34290;48.562;13.384;2023-05-07T01:37:25;8.30;99.90
34434;DHT22;34290;48.562;13.384;2023-05-07T01:39:54;8.40;99.90
34434;DHT22;34290;48.562;13.384;2023-05-07T01:42:21;8.40;99.90
34434;DHT22;34290;48.562;13.384;2023-05-07T01:44:48;8.30;99.90
34434;DHT22;34290;48.562;13.384;2023-05-07T01:47:16;8.40;99.90
34434;DHT22;34290;48.562;13.384;2023-05-07T01:49:43;8.20;99.90
34434;DHT22;34290;48.562;13.384;2023-05-07T01:52:11;8.20;99.90
34434;DHT22;34290;48.562;13.384;2023-05-07T01:54:38;8.20;99.90
34434;DHT22;34290;48.562;13.384;2023-05-07T01:57:06;8.20;99.90
34434;DHT22;34290;48.562;13.384;2023-05-07T01:59:34;8.20;99.90
34434;DHT22;34290;48.562;13.384;2023-05-07T02:02:01;8.30;99.90
34434;DHT22;34290;48.562;13.384;2023-05-07T02:04:27;8.30;99.90
34434;DHT22;34290;48.562;13.384;2023-05-07T02:06:54;8.20;99.90
34434;DHT22;34290;48.562;13.384;2023-05-07T02:09:22;8.10;99.90
34434;DHT22;34290;48.562;13.384;2023-05-07T02:11:49;8.10;99.90
34434;DHT22;34290;48.562;13.384;2023-05-07T02:14:17;8.00;99.90
34434;DHT22;34290;48.562;13.384;2023-05-07T02:16:45;8.10;99.90
34434;DHT22;34290;48.562;13.384;2023-05-07T02:19:12;8.10;99.90
34434;DHT22;34290;48.562;13.384;2023-05-07T02:21:39;8.30;99.90
34434;DHT22;34290;48.562;13.384;2023-05-07T02:24:06;8.40;99.90
34434;DHT22;34290;48.562;13.384;2023-05-07T02:26:33;8.30;99.90
34434;DHT22;34290;48.562;13.384;2023-05-07T02:29:00;8.30;99.90
34434;DHT22;34290;48.562;13.384;2023-05-07T02:31:29;8.20;99.90
34434;DHT22;34290;48.562;13.384;2023-05-07T02:33:56;8.20;99.90
34434;DHT22;34290;48.562;13.384;2023-05-07T02:36:23;8.20;99.90
34434;DHT22;34290;48.562;13.384;2023-05-07T02:38:50;8.20;99.90
34434;DHT22;34290;48.562;13.384;2023-05-07T02:41:16;8.00;99.90
34434;DHT22;34290;48.562;13.384;2023-05-07T02:43:43;8.00;99.90
34434;DHT22;34290;48.562;13.384;2023-05-07T02:46:10;8.00;99.90
34434;DHT22;34290;48.562;13.384;2023-05-07T02:48:39;7.90;99.90
34434;DHT22;34290;48.562;13.384;2023-05-07T02:51:06;7.90;99.90
34434;DHT22;34290;48.562;13.384;2023-05-07T02:53:33;6.30;99.90
34434;DHT22;34290;48.562;13.384;2023-05-07T02:56:01;7.90;99.90
34434;DHT22;34290;48.562;13.384;2023-05-07T02:58:28;7.80;99.90
34434;DHT22;34290;48.562;13.384;2023-05-07T03:00:55;7.90;99.90
34434;DHT22;34290;48.562;13.384;2023-05-07T03:03:22;7.90;99.90
34434;DHT22;34290;48.562;13.384;2023-05-07T03:05:50;7.90;99.90
34434;DHT22;34290;48.562;13.384;2023-05-07T03:08:17;7.80;99.90
34434;DHT22;34290;48.562;13.384;2023-05-07T03:10:44;7.80;99.90
34434;DHT22;34290;48.562;13.384;2023-05-07T03:13:11;7.80;99.90
34434;DHT22;34290;48.562;13.384;2023-05-07T03:15:38;7.90;99.90
34434;DHT22;34290;48.562;13.384;2023-05-07T03:18:05;7.90;99.90
34434;DHT22;34290;48.562;13.384;2023-05-07T03:20:32;7.90;99.90
34434;DHT22;34290;48.562;13.384;2023-05-07T03:23:00;7.90;99.90
34434;DHT22;34290;48.562;13.384;2023-05-07T03:25:27;7.90;99.90
34434;DHT22;34290;48.562;13.384;2023-05-07T03:27:55;7.80;99.90
34434;DHT22;34290;48.562;13.384;2023-05-07T03:30:23;7.80;99.90
34434;DHT22;34290;48.562;13.384;2023-05-07T03:32:50;7.90;99.90
34434;DHT22;34290;48.562;13.384;2023-05-07T03:35:17;7.90;99.90
34434;DHT22;34290;48.562;13.384;2023-05-07T03:37:44;7.90;99.90
34434;DHT22;34290;48.562;13.384;2023-05-07T03:40:12;7.90;99.90
34434;DHT22;34290;48.562;13.384;2023-05-07T03:42:39;7.90;99.90
34434;DHT22;34290;48.562;13.384;2023-05-07T03:45:07;7.90;99.90
34434;DHT22;34290;48.562;13.384;2023-05-07T03:47:35;8.00;99.90
34434;DHT22;34290;48.562;13.384;2023-05-07T03:50:01;8.10;99.90
34434;DHT22;34290;48.562;13.384;2023-05-07T03:52:28;8.10;99.90
34434;DHT22;34290;48.562;13.384;2023-05-07T03:54:55;8.20;99.90
34434;DHT22;34290;48.562;13.384;2023-05-07T03:57:24;8.20;99.90
34434;DHT22;34290;48.562;13.384;2023-05-07T03:59:51;8.30;99.90
34434;DHT22;34290;48.562;13.384;2023-05-07T04:02:18;8.30;99.90
34434;DHT22;34290;48.562;13.384;2023-05-07T04:04:45;8.50;99.90
34434;DHT22;34290;48.562;13.384;2023-05-07T04:07:12;8.60;99.90
34434;DHT22;34290;48.562;13.384;2023-05-07T04:09:39;8.60;99.90
34434;DHT22;34290;48.562;13.384;2023-05-07T04:12:06;8.50;99.90
34434;DHT22;34290;48.562;13.384;2023-05-07T04:14:34;8.60;99.90
34434;DHT22;34290;48.562;13.384;2023-05-07T04:17:01;8.80;99.90
34434;DHT22;34290;48.562;13.384;2023-05-07T04:19:28;9.10;99.90
34434;DHT22;34290;48.562;13.384;2023-05-07T04:21:55;9.30;99.90
34434;DHT22;34290;48.562;13.384;2023-05-07T04:24:22;9.50;99.90
34434;DHT22;34290;48.562;13.384;2023-05-07T04:26:49;9.60;99.90
34434;DHT22;34290;48.562;13.384;2023-05-07T04:29:17;9.60;99.90
34434;DHT22;34290;48.562;13.384;2023-05-07T04:31:45;9.60;99.90
34434;DHT22;34290;48.562;13.384;2023-05-07T04:34:12;9.80;99.90
34434;DHT22;34290;48.562;13.384;2023-05-07T04:36:39;10.40;99.90
34434;DHT22;34290;48.562;13.384;2023-05-07T04:39:06;11.20;99.90
34434;DHT22;34290;48.562;13.384;2023-05-07T04:41:35;12.20;99.90
34434;DHT22;34290;48.562;13.384;2023-05-07T04:44:02;12.50;99.90
34434;DHT22;34290;48.562;13.384;2023-05-07T04:46:30;13.30;99.90
34434;DHT22;34290;48.562;13.384;2023-05-07T04:48:58;13.90;99.90
34434;DHT22;34290;48.562;13.384;2023-05-07T04:51:25;14.20;99.90
34434;DHT22;34290;48.562;13.384;2023-05-07T04:53:52;14.30;99.90
34434;DHT22;34290;48.562;13.384;2023-05-07T04:56:19;14.60;99.90
34434;DHT22;34290;48.562;13.384;2023-05-07T04:58:46;15.00;99.90
34434;DHT22;34290;48.562;13.384;2023-05-07T05:01:14;16.00;99.90
34434;DHT22;34290;48.562;13.384;2023-05-07T05:03:41;16.70;99.90
34434;DHT22;34290;48.562;13.384;2023-05-07T05:06:10;17.80;99.90
34434;DHT22;34290;48.562;13.384;2023-05-07T05:08:37;19.30;99.90
34434;DHT22;34290;48.562;13.384;2023-05-07T05:11:04;19.50;99.90
34434;DHT22;34290;48.562;13.384;2023-05-07T05:13:31;20.00;99.90
34434;DHT22;34290;48.562;13.384;2023-05-07T05:15:58;20.70;99.90
34434;DHT22;34290;48.562;13.384;2023-05-07T05:18:25;21.60;99.90
34434;DHT22;34290;48.562;13.384;2023-05-07T05:20:52;21.70;99.90
34434;DHT22;34290;48.562;13.384;2023-05-07T05:23:20;21.70;99.90
34434;DHT22;34290;48.562;13.384;2023-05-07T05:25:47;22.20;99.90
34434;DHT22;34290;48.562;13.384;2023-05-07T05:28:14;22.90;99.90
34434;DHT22;34290;48.562;13.384;2023-05-07T05:30:41;24.60;97.60
34434;DHT22;34290;48.562;13.384;2023-05-07T05:33:08;24.90;97.20
34434;DHT22;34290;48.562;13.384;2023-05-07T05:35:35;25.40;96.80
34434;DHT22;34290;48.562;13.384;2023-05-07T05:38:02;25.30;96.20
34434;DHT22;34290;48.562;13.384;2023-05-07T05:40:31;24.90;96.20
34434;DHT22;34290;48.562;13.384;2023-05-07T05:43:01;24.70;96.30
34434;DHT22;34290;48.562;13.384;2023-05-07T05:45:28;24.60;95.60
34434;DHT22;34290;48.562;13.384;2023-05-07T05:47:56;24.80;95.10
34434;DHT22;34290;48.562;13.384;2023-05-07T05:50:23;26.00;94.40
34434;DHT22;34290;48.562;13.384;2023-05-07T05:52:50;26.20;94.20
34434;DHT22;34290;48.562;13.384;2023-05-07T05:55:17;26.00;93.40
34434;DHT22;34290;48.562;13.384;2023-05-07T05:57:45;26.10;93.50
34434;DHT22;34290;48.562;13.384;2023-05-07T06:00:13;25.30;92.50
34434;DHT22;34290;48.562;13.384;2023-05-07T06:02:41;25.20;93.50
34434;DHT22;34290;48.562;13.384;2023-05-07T06:05:08;25.10;93.60
34434;DHT22;34290;48.562;13.384;2023-05-07T06:07:35;25.50;93.20
34434;DHT22;34290;48.562;13.384;2023-05-07T06:10:03;24.70;93.90
34434;DHT22;34290;48.562;13.384;2023-05-07T06:12:30;24.00;94.50
34434;DHT22;34290;48.562;13.384;2023-05-07T06:14:58;23.10;95.20
34434;DHT22;34290;48.562;13.384;2023-05-07T06:17:25;23.30;96.30
34434;DHT22;34290;48.562;13.384;2023-05-07T06:19:52;23.10;95.70
34434;DHT22;34290;48.562;13.384;2023-05-07T06:22:19;22.50;96.10
34434;DHT22;34290;48.562;13.384;2023-05-07T06:24:46;23.10;96.90
34434;DHT22;34290;48.562;13.384;2023-05-07T06:27:13;23.30;96.10
34434;DHT22;34290;48.562;13.384;2023-05-07T06:32:09;23.40;95.50
34434;DHT22;34290;48.562;13.384;2023-05-07T06:34:38;23.20;95.20
34434;DHT22;34290;48.562;13.384;2023-05-07T06:37:06;23.20;95.60
34434;DHT22;34290;48.562;13.384;2023-05-07T06:39:33;22.90;95.10
34434;DHT22;34290;48.562;13.384;2023-05-07T06:42:00;22.90;96.10
34434;DHT22;34290;48.562;13.384;2023-05-07T06:44:27;22.10;96.00
34434;DHT22;34290;48.562;13.384;2023-05-07T06:46:54;22.60;95.80
34434;DHT22;34290;48.562;13.384;2023-05-07T06:49:22;23.50;96.00
34434;DHT22;34290;48.562;13.384;2023-05-07T06:51:49;23.70;95.40
34434;DHT22;34290;48.562;13.384;2023-05-07T06:54:16;23.80;95.00
34434;DHT22;34290;48.562;13.384;2023-05-07T06:56:43;23.60;94.30
34434;DHT22;34290;48.562;13.384;2023-05-07T06:59:10;23.60;94.60
34434;DHT22;34290;48.562;13.384;2023-05-07T07:01:37;23.90;94.20
34434;DHT22;34290;48.562;13.384;2023-05-07T07:04:04;23.90;94.40
34434;DHT22;34290;48.562;13.384;2023-05-07T07:06:33;25.30;94.60
34434;DHT22;34290;48.562;13.384;2023-05-07T07:09:00;26.00;92.80
34434;DHT22;34290;48.562;13.384;2023-05-07T07:11:27;26.30;92.50
34434;DHT22;34290;48.562;13.384;2023-05-07T07:13:54;26.20;91.30
34434;DHT22;34290;48.562;13.384;2023-05-07T07:16:21;26.20;91.60
34434;DHT22;34290;48.562;13.384;2023-05-07T07:18:48;25.80;92.20
34434;DHT22;34290;48.562;13.384;2023-05-07T07:21:15;24.80;93.00
34434;DHT22;34290;48.562;13.384;2023-05-07T07:23:43;25.50;93.50
34434;DHT22;34290;48.562;13.384;2023-05-07T07:26:10;25.00;92.10
34434;DHT22;34290;48.562;13.384;2023-05-07T07:28:42;25.00;93.40
34434;DHT22;34290;48.562;13.384;2023-05-07T07:33:37;24.40;93.80
34434;DHT22;34290;48.562;13.384;2023-05-07T07:36:05;25.40;93.00
34434;DHT22;34290;48.562;13.384;2023-05-07T07:38:32;26.60;92.10
34434;DHT22;34290;48.562;13.384;2023-05-07T07:41:01;27.00;91.20
34434;DHT22;34290;48.562;13.384;2023-05-07T07:43:28;27.10;92.20
34434;DHT22;34290;48.562;13.384;2023-05-07T07:48:22;28.00;90.10
34434;DHT22;34290;48.562;13.384;2023-05-07T07:50:50;26.80;90.60
34434;DHT22;34290;48.562;13.384;2023-05-07T07:53:17;28.30;91.70
34434;DHT22;34290;48.562;13.384;2023-05-07T07:55:44;29.80;90.60
34434;DHT22;34290;48.562;13.384;2023-05-07T07:58:12;30.20;88.00
34434;DHT22;34290;48.562;13.384;2023-05-07T08:00:39;28.20;89.20
34434;DHT22;34290;48.562;13.384;2023-05-07T08:03:09;28.70;87.30
34434;DHT22;34290;48.562;13.384;2023-05-07T08:08:04;26.50;90.30
34434;DHT22;34290;48.562;13.384;2023-05-07T08:10:31;26.00;91.10
34434;DHT22;34290;48.562;13.384;2023-05-07T08:13:00;26.60;90.60
34434;DHT22;34290;48.562;13.384;2023-05-07T08:15:28;28.00;89.60
34434;DHT22;34290;48.562;13.384;2023-05-07T08:17:56;28.70;87.60
34434;DHT22;34290;48.562;13.384;2023-05-07T08:25:20;28.10;89.90
34434;DHT22;34290;48.562;13.384;2023-05-07T08:27:47;29.00;91.00
34434;DHT22;34290;48.562;13.384;2023-05-07T08:30:14;28.50;87.60
34434;DHT22;34290;48.562;13.384;2023-05-07T08:32:43;29.40;88.10
34434;DHT22;34290;48.562;13.384;2023-05-07T08:37:37;30.20;83.50
34434;DHT22;34290;48.562;13.384;2023-05-07T08:40:06;28.10;85.80
34434;DHT22;34290;48.562;13.384;2023-05-07T08:42:36;26.80;89.70
34434;DHT22;34290;48.562;13.384;2023-05-07T08:45:04;27.00;88.70
34434;DHT22;34290;48.562;13.384;2023-05-07T08:47:40;26.90;88.90
34434;DHT22;34290;48.562;13.384;2023-05-07T08:50:10;26.50;89.80
34434;DHT22;34290;48.562;13.384;2023-05-07T08:55:06;25.30;91.40
34434;DHT22;34290;48.562;13.384;2023-05-07T08:57:33;25.60;92.00
34434;DHT22;34290;48.562;13.384;2023-05-07T09:00:00;25.40;91.90
34434;DHT22;34290;48.562;13.384;2023-05-07T09:02:27;25.80;92.60
34434;DHT22;34290;48.562;13.384;2023-05-07T09:04:54;26.80;92.30
34434;DHT22;34290;48.562;13.384;2023-05-07T09:07:26;28.00;91.20
34434;DHT22;34290;48.562;13.384;2023-05-07T09:09:53;28.00;88.50
34434;DHT22;34290;48.562;13.384;2023-05-07T09:12:21;26.80;90.10
34434;DHT22;34290;48.562;13.384;2023-05-07T09:14:49;25.10;91.20
34434;DHT22;34290;48.562;13.384;2023-05-07T09:19:44;24.30;92.90
34434;DHT22;34290;48.562;13.384;2023-05-07T09:22:12;24.30;93.40
34434;DHT22;34290;48.562;13.384;2023-05-07T09:24:40;25.30;92.00
34434;DHT22;34290;48.562;13.384;2023-05-07T09:27:10;25.30;92.10
34434;DHT22;34290;48.562;13.384;2023-05-07T09:32:07;24.20;92.60
34434;DHT22;34290;48.562;13.384;2023-05-07T09:34:35;24.20;93.40
34434;DHT22;34290;48.562;13.384;2023-05-07T09:37:03;24.50;93.20
34434;DHT22;34290;48.562;13.384;2023-05-07T09:39:40;24.40;92.60
34434;DHT22;34290;48.562;13.384;2023-05-07T09:42:07;24.20;93.60
34434;DHT22;34290;48.562;13.384;2023-05-07T09:44:35;24.20;93.50
34434;DHT22;34290;48.562;13.384;2023-05-07T09:47:05;24.80;93.40
34434;DHT22;34290;48.562;13.384;2023-05-07T09:49:35;24.70;92.30
34434;DHT22;34290;48.562;13.384;2023-05-07T09:52:04;24.60;93.20
34434;DHT22;34290;48.562;13.384;2023-05-07T09:54:32;25.20;93.50
34434;DHT22;34290;48.562;13.384;2023-05-07T09:57:02;25.70;92.30
34434;DHT22;34290;48.562;13.384;2023-05-07T09:59:31;26.50;92.30
34434;DHT22;34290;48.562;13.384;2023-05-07T10:01:59;27.00;92.10
34434;DHT22;34290;48.562;13.384;2023-05-07T10:04:27;27.20;91.90
34434;DHT22;34290;48.562;13.384;2023-05-07T10:06:54;27.40;90.90
34434;DHT22;34290;48.562;13.384;2023-05-07T10:09:25;27.50;90.70
34434;DHT22;34290;48.562;13.384;2023-05-07T10:11:52;27.70;91.00
34434;DHT22;34290;48.562;13.384;2023-05-07T10:14:22;27.00;90.60
34434;DHT22;34290;48.562;13.384;2023-05-07T10:16:49;26.40;91.20
34434;DHT22;34290;48.562;13.384;2023-05-07T10:19:18;26.30;91.40
34434;DHT22;34290;48.562;13.384;2023-05-07T10:21:51;26.20;91.00
34434;DHT22;34290;48.562;13.384;2023-05-07T10:24:24;25.40;91.40
34434;DHT22;34290;48.562;13.384;2023-05-07T10:26:53;24.40;92.20
34434;DHT22;34290;48.562;13.384;2023-05-07T10:29:34;23.90;93.90
34434;DHT22;34290;48.562;13.384;2023-05-07T10:32:19;23.10;93.80
34434;DHT22;34290;48.562;13.384;2023-05-07T10:34:54;22.60;95.00
34434;DHT22;34290;48.562;13.384;2023-05-07T10:37:22;22.80;95.90
34434;DHT22;34290;48.562;13.384;2023-05-07T10:39:49;23.00;94.50
34434;DHT22;34290;48.562;13.384;2023-05-07T10:42:17;23.00;94.30
34434;DHT22;34290;48.562;13.384;2023-05-07T10:44:45;23.20;94.60
34434;DHT22;34290;48.562;13.384;2023-05-07T10:47:14;23.30;94.80
34434;DHT22;34290;48.562;13.384;2023-05-07T10:50:21;23.60;94.30
34434;DHT22;34290;48.562;13.384;2023-05-07T10:59:33;23.90;93.70
34434;DHT22;34290;48.562;13.384;2023-05-07T11:02:08;24.20;93.20
34434;DHT22;34290;48.562;13.384;2023-05-07T11:04:38;24.00;92.30
34434;DHT22;34290;48.562;13.384;2023-05-07T11:07:29;23.80;93.30
34434;DHT22;34290;48.562;13.384;2023-05-07T11:10:03;23.10;92.40
34434;DHT22;34290;48.562;13.384;2023-05-07T11:12:53;23.00;93.20
34434;DHT22;34290;48.562;13.384;2023-05-07T11:15:37;23.10;93.50
34434;DHT22;34290;48.562;13.384;2023-05-07T11:18:06;23.70;92.90
34434;DHT22;34290;48.562;13.384;2023-05-07T11:20:51;24.40;93.40
34434;DHT22;34290;48.562;13.384;2023-05-07T11:26:43;23.80;93.50
34434;DHT22;34290;48.562;13.384;2023-05-07T11:29:15;23.70;94.50
34434;DHT22;34290;48.562;13.384;2023-05-07T11:31:42;23.90;93.10
34434;DHT22;34290;48.562;13.384;2023-05-07T11:34:14;24.10;93.40
34434;DHT22;34290;48.562;13.384;2023-05-07T11:36:43;24.10;93.30
34434;DHT22;34290;48.562;13.384;2023-05-07T11:39:26;23.80;94.40
34434;DHT22;34290;48.562;13.384;2023-05-07T11:41:54;23.60;93.60
34434;DHT22;34290;48.562;13.384;2023-05-07T11:46:49;23.30;93.50
34434;DHT22;34290;48.562;13.384;2023-05-07T11:49:17;23.40;92.80
34434;DHT22;34290;48.562;13.384;2023-05-07T11:51:45;23.50;92.60
34434;DHT22;34290;48.562;13.384;2023-05-07T11:54:15;23.20;92.80
34434;DHT22;34290;48.562;13.384;2023-05-07T11:56:44;22.80;92.80
34434;DHT22;34290;48.562;13.384;2023-05-07T12:01:38;22.50;94.40
34434;DHT22;34290;48.562;13.384;2023-05-07T12:06:37;22.40;94.30
34434;DHT22;34290;48.562;13.384;2023-05-07T12:09:04;22.20;94.70
34434;DHT22;34290;48.562;13.384;2023-05-07T12:11:36;22.20;94.70
34434;DHT22;34290;48.562;13.384;2023-05-07T12:14:05;22.50;94.50
34434;DHT22;34290;48.562;13.384;2023-05-07T12:16:32;22.20;94.20
34434;DHT22;34290;48.562;13.384;2023-05-07T12:19:00;22.20;95.10
34434;DHT22;34290;48.562;13.384;2023-05-07T12:21:27;22.30;95.20
34434;DHT22;34290;48.562;13.384;2023-05-07T12:23:56;22.20;93.30
34434;DHT22;34290;48.562;13.384;2023-05-07T12:26:23;22.30;92.60
34434;DHT22;34290;48.562;13.384;2023-05-07T12:28:50;22.20;91.20
34434;DHT22;34290;48.562;13.384;2023-05-07T12:31:17;22.20;92.50
34434;DHT22;34290;48.562;13.384;2023-05-07T12:33:45;22.30;92.30
34434;DHT22;34290;48.562;13.384;2023-05-07T12:36:13;22.30;93.00
34434;DHT22;34290;48.562;13.384;2023-05-07T12:38:40;22.20;92.20
34434;DHT22;34290;48.562;13.384;2023-05-07T12:41:10;21.60;93.40
34434;DHT22;34290;48.562;13.384;2023-05-07T12:43:37;21.10;94.90
34434;DHT22;34290;48.562;13.384;2023-05-07T12:46:06;20.70;94.90
34434;DHT22;34290;48.562;13.384;2023-05-07T12:48:33;20.70;95.40
34434;DHT22;34290;48.562;13.384;2023-05-07T12:51:01;20.60;95.70
34434;DHT22;34290;48.562;13.384;2023-05-07T12:53:29;20.70;95.60
34434;DHT22;34290;48.562;13.384;2023-05-07T12:55:57;20.70;96.20
34434;DHT22;34290;48.562;13.384;2023-05-07T12:58:28;20.90;96.30
34434;DHT22;34290;48.562;13.384;2023-05-07T13:00:56;20.80;95.90
34434;DHT22;34290;48.562;13.384;2023-05-07T13:03:26;20.90;96.70
34434;DHT22;34290;48.562;13.384;2023-05-07T13:05:55;20.90;95.90
34434;DHT22;34290;48.562;13.384;2023-05-07T13:08:30;20.70;96.20
34434;DHT22;34290;48.562;13.384;2023-05-07T13:10:58;20.60;97.60
34434;DHT22;34290;48.562;13.384;2023-05-07T13:13:27;20.60;98.30
34434;DHT22;34290;48.562;13.384;2023-05-07T13:15:54;20.60;98.20
34434;DHT22;34290;48.562;13.384;2023-05-07T13:18:21;20.60;99.00
34434;DHT22;34290;48.562;13.384;2023-05-07T13:20:48;20.70;98.40
34434;DHT22;34290;48.562;13.384;2023-05-07T13:23:15;20.60;96.80
34434;DHT22;34290;48.562;13.384;2023-05-07T13:28:09;20.90;96.90
34434;DHT22;34290;48.562;13.384;2023-05-07T13:30:37;21.10;96.50
34434;DHT22;34290;48.562;13.384;2023-05-07T13:33:04;21.10;97.10
34434;DHT22;34290;48.562;13.384;2023-05-07T13:35:31;21.30;97.00
34434;DHT22;34290;48.562;13.384;2023-05-07T13:37:58;21.40;97.00
34434;DHT22;34290;48.562;13.384;2023-05-07T13:40:25;21.70;96.90
34434;DHT22;34290;48.562;13.384;2023-05-07T13:42:53;21.70;96.10
34434;DHT22;34290;48.562;13.384;2023-05-07T13:45:20;22.00;97.00
34434;DHT22;34290;48.562;13.384;2023-05-07T13:47:52;22.20;97.90
34434;DHT22;34290;48.562;13.384;2023-05-07T13:50:19;22.30;95.60
34434;DHT22;34290;48.562;13.384;2023-05-07T13:52:46;22.20;95.30
34434;DHT22;34290;48.562;13.384;2023-05-07T13:55:16;21.80;95.60
34434;DHT22;34290;48.562;13.384;2023-05-07T13:57:44;21.80;96.90
34434;DHT22;34290;48.562;13.384;2023-05-07T14:00:12;21.60;93.10
34434;DHT22;34290;48.562;13.384;2023-05-07T14:02:39;21.70;94.30
34434;DHT22;34290;48.562;13.384;2023-05-07T14:05:08;21.50;94.90
34434;DHT22;34290;48.562;13.384;2023-05-07T14:07:36;21.30;93.40
34434;DHT22;34290;48.562;13.384;2023-05-07T14:10:03;21.10;92.80
34434;DHT22;34290;48.562;13.384;2023-05-07T14:12:31;21.20;93.30
34434;DHT22;34290;48.562;13.384;2023-05-07T14:14:58;21.40;94.30
34434;DHT22;34290;48.562;13.384;2023-05-07T14:17:25;21.40;93.90
34434;DHT22;34290;48.562;13.384;2023-05-07T14:19:52;21.40;94.10
34434;DHT22;34290;48.562;13.384;2023-05-07T14:22:22;21.20;93.10
34434;DHT22;34290;48.562;13.384;2023-05-07T14:24:49;21.20;93.50
34434;DHT22;34290;48.562;13.384;2023-05-07T14:27:16;21.20;93.80
34434;DHT22;34290;48.562;13.384;2023-05-07T14:29:43;21.20;93.40
34434;DHT22;34290;48.562;13.384;2023-05-07T14:32:11;21.20;93.00
34434;DHT22;34290;48.562;13.384;2023-05-07T14:34:38;21.10;92.80
34434;DHT22;34290;48.562;13.384;2023-05-07T14:37:05;21.10;92.60
34434;DHT22;34290;48.562;13.384;2023-05-07T14:39:34;21.20;93.10
34434;DHT22;34290;48.562;13.384;2023-05-07T14:42:01;21.20;92.40
34434;DHT22;34290;48.562;13.384;2023-05-07T14:44:28;21.20;93.10
34434;DHT22;34290;48.562;13.384;2023-05-07T14:46:55;21.20;92.80
34434;DHT22;34290;48.562;13.384;2023-05-07T14:49:22;21.20;92.60
34434;DHT22;34290;48.562;13.384;2023-05-07T14:51:49;21.10;92.40
34434;DHT22;34290;48.562;13.384;2023-05-07T14:54:19;21.30;92.30
34434;DHT22;34290;48.562;13.384;2023-05-07T14:56:48;21.20;91.90
34434;DHT22;34290;48.562;13.384;2023-05-07T14:59:15;21.30;92.30
34434;DHT22;34290;48.562;13.384;2023-05-07T15:01:45;21.40;91.80
34434;DHT22;34290;48.562;13.384;2023-05-07T15:04:12;21.40;91.70
34434;DHT22;34290;48.562;13.384;2023-05-07T15:06:39;21.60;92.30
34434;DHT22;34290;48.562;13.384;2023-05-07T15:09:05;21.60;92.00
34434;DHT22;34290;48.562;13.384;2023-05-07T15:11:37;21.70;92.40
34434;DHT22;34290;48.562;13.384;2023-05-07T15:14:05;21.70;91.30
34434;DHT22;34290;48.562;13.384;2023-05-07T15:16:32;21.60;92.90
34434;DHT22;34290;48.562;13.384;2023-05-07T15:18:59;21.60;92.10
34434;DHT22;34290;48.562;13.384;2023-05-07T15:21:26;21.60;91.80
34434;DHT22;34290;48.562;13.384;2023-05-07T15:23:53;21.40;91.40
34434;DHT22;34290;48.562;13.384;2023-05-07T15:26:20;21.30;91.20
34434;DHT22;34290;48.562;13.384;2023-05-07T15:28:47;21.30;91.90
34434;DHT22;34290;48.562;13.384;2023-05-07T15:31:16;21.30;91.80
34434;DHT22;34290;48.562;13.384;2023-05-07T15:33:43;21.30;90.90
34434;DHT22;34290;48.562;13.384;2023-05-07T15:36:11;21.30;91.00
34434;DHT22;34290;48.562;13.384;2023-05-07T15:38:38;21.30;91.50
34434;DHT22;34290;48.562;13.384;2023-05-07T15:41:05;21.30;90.90
34434;DHT22;34290;48.562;13.384;2023-05-07T15:43:32;21.50;92.00
34434;DHT22;34290;48.562;13.384;2023-05-07T15:45:59;21.20;91.70
34434;DHT22;34290;48.562;13.384;2023-05-07T15:48:28;21.20;92.20
34434;DHT22;34290;48.562;13.384;2023-05-07T15:50:56;21.10;92.10
34434;DHT22;34290;48.562;13.384;2023-05-07T15:53:23;21.10;92.80
34434;DHT22;34290;48.562;13.384;2023-05-07T15:55:50;20.90;92.80
34434;DHT22;34290;48.562;13.384;2023-05-07T15:58:17;20.80;93.00
34434;DHT22;34290;48.562;13.384;2023-05-07T16:00:45;20.80;93.10
34434;DHT22;34290;48.562;13.384;2023-05-07T16:03:12;20.70;93.40
34434;DHT22;34290;48.562;13.384;2023-05-07T16:05:41;20.60;93.40
34434;DHT22;34290;48.562;13.384;2023-05-07T16:08:08;20.60;93.30
34434;DHT22;34290;48.562;13.384;2023-05-07T16:10:35;20.40;93.00
34434;DHT22;34290;48.562;13.384;2023-05-07T16:13:01;20.40;93.30
34434;DHT22;34290;48.562;13.384;2023-05-07T16:15:29;20.30;93.20
34434;DHT22;34290;48.562;13.384;2023-05-07T16:17:56;20.10;93.70
34434;DHT22;34290;48.562;13.384;2023-05-07T16:20:26;20.10;93.90
34434;DHT22;34290;48.562;13.384;2023-05-07T16:22:57;20.10;94.60